sensor_id;sensor_type;location;lat;lon;timestamp;pressure;altitude;pressure_sealevel;temperature;humidity
13033;BME280;6583;42.632;23.298;2022-09-09T00:00:19;92765.38;;;18.67;92.09
13033;BME280;6583;42.632;23.298;2022-09-09T00:02:53;92764.47;;;18.63;92.29
13033;BME280;6583;42.632;23.298;2022-09-09T00:05:28;92762.88;;;18.61;92.12
13033;BME280;6583;42.632;23.298;2022-09-09T00:07:59;92759.94;;;18.42;92.50
13033;BME280;6583;42.632;23.298;2022-09-09T00:10:32;92768.88;;;18.34;93.79
13033;BME280;6583;42.632;23.298;2022-09-09T00:13:05;92765.59;;;18.28;93.73
13033;BME280;6583;42.632;23.298;2022-09-09T00:15:38;92766.38;;;18.29;93.79
13033;BME280;6583;42.632;23.298;2022-09-09T00:18:17;92772.69;;;18.33;93.92
13033;BME280;6583;42.632;23.298;2022-09-09T00:20:54;92767.56;;;18.40;92.82
13033;BME280;6583;42.632;23.298;2022-09-09T00:23:28;92757.03;;;18.47;91.76
13033;BME280;6583;42.632;23.298;2022-09-09T00:26:02;92754.91;;;18.53;91.21
13033;BME280;6583;42.632;23.298;2022-09-09T00:28:34;92744.75;;;18.58;90.61
13033;BME280;6583;42.632;23.298;2022-09-09T00:31:12;92740.28;;;18.63;90.03
13033;BME280;6583;42.632;23.298;2022-09-09T00:33:39;92741.50;;;18.65;89.74
13033;BME280;6583;42.632;23.298;2022-09-09T00:36:12;92733.59;;;18.69;89.27
13033;BME280;6583;42.632;23.298;2022-09-09T00:38:43;92731.78;;;18.73;89.08
13033;BME280;6583;42.632;23.298;2022-09-09T00:41:18;92727.06;;;18.70;89.61
13033;BME280;6583;42.632;23.298;2022-09-09T00:43:56;92730.63;;;18.61;90.50
13033;BME280;6583;42.632;23.298;2022-09-09T00:46:40;92722.47;;;18.58;90.74
13033;BME280;6583;42.632;23.298;2022-09-09T00:49:17;92725.03;;;18.54;90.82
13033;BME280;6583;42.632;23.298;2022-09-09T00:51:56;92724.81;;;18.47;90.84
13033;BME280;6583;42.632;23.298;2022-09-09T00:54:42;92719.97;;;18.40;91.72
13033;BME280;6583;42.632;23.298;2022-09-09T00:57:20;92721.88;;;18.40;91.75
13033;BME280;6583;42.632;23.298;2022-09-09T00:59:51;92719.06;;;18.36;92.71
13033;BME280;6583;42.632;23.298;2022-09-09T01:02:26;92721.44;;;18.38;92.43
13033;BME280;6583;42.632;23.298;2022-09-09T01:04:54;92722.75;;;18.32;92.88
13033;BME280;6583;42.632;23.298;2022-09-09T01:07:24;92726.09;;;18.29;92.80
13033;BME280;6583;42.632;23.298;2022-09-09T01:09:55;92720.50;;;18.34;93.36
13033;BME280;6583;42.632;23.298;2022-09-09T01:12:32;92728.78;;;18.29;92.80
13033;BME280;6583;42.632;23.298;2022-09-09T01:15:09;92721.41;;;18.26;92.82
13033;BME280;6583;42.632;23.298;2022-09-09T01:17:46;92728.44;;;18.30;92.34
13033;BME280;6583;42.632;23.298;2022-09-09T01:20:20;92727.88;;;18.25;93.04
13033;BME280;6583;42.632;23.298;2022-09-09T01:22:59;92719.50;;;18.26;92.90
13033;BME280;6583;42.632;23.298;2022-09-09T01:26:05;92724.09;;;18.26;93.03
13033;BME280;6583;42.632;23.298;2022-09-09T01:28:36;92719.16;;;18.28;92.75
13033;BME280;6583;42.632;23.298;2022-09-09T01:31:05;92719.50;;;18.26;93.01
13033;BME280;6583;42.632;23.298;2022-09-09T01:33:34;92715.69;;;18.27;92.99
13033;BME280;6583;42.632;23.298;2022-09-09T01:36:04;92720.28;;;18.27;92.97
13033;BME280;6583;42.632;23.298;2022-09-09T01:38:34;92727.44;;;18.22;93.68
13033;BME280;6583;42.632;23.298;2022-09-09T01:41:04;92733.13;;;18.21;93.30
13033;BME280;6583;42.632;23.298;2022-09-09T01:43:31;92735.63;;;18.26;93.08
13033;BME280;6583;42.632;23.298;2022-09-09T01:46:00;92737.03;;;18.23;92.90
13033;BME280;6583;42.632;23.298;2022-09-09T01:48:28;92734.25;;;18.20;93.09
13033;BME280;6583;42.632;23.298;2022-09-09T01:50:55;92745.88;;;18.12;94.09
13033;BME280;6583;42.632;23.298;2022-09-09T01:53:22;92739.56;;;18.08;94.36
13033;BME280;6583;42.632;23.298;2022-09-09T01:55:58;92741.94;;;18.09;94.28
13033;BME280;6583;42.632;23.298;2022-09-09T01:58:34;92739.25;;;18.09;94.57
13033;BME280;6583;42.632;23.298;2022-09-09T02:01:12;92737.09;;;18.02;95.13
13033;BME280;6583;42.632;23.298;2022-09-09T02:03:44;92728.25;;;18.02;95.13
13033;BME280;6583;42.632;23.298;2022-09-09T02:06:23;92734.41;;;18.02;94.84
13033;BME280;6583;42.632;23.298;2022-09-09T02:08:55;92740.38;;;18.08;93.73
13033;BME280;6583;42.632;23.298;2022-09-09T02:11:24;92735.66;;;18.05;93.59
13033;BME280;6583;42.632;23.298;2022-09-09T02:13:56;92734.72;;;18.01;93.61
13033;BME280;6583;42.632;23.298;2022-09-09T02:16:27;92731.72;;;18.02;93.94
13033;BME280;6583;42.632;23.298;2022-09-09T02:18:59;92719.09;;;18.03;93.96
13033;BME280;6583;42.632;23.298;2022-09-09T02:21:30;92722.22;;;18.05;93.90
13033;BME280;6583;42.632;23.298;2022-09-09T02:24:02;92722.03;;;18.10;92.50
13033;BME280;6583;42.632;23.298;2022-09-09T02:26:31;92714.41;;;18.12;91.87
13033;BME280;6583;42.632;23.298;2022-09-09T02:29:02;92710.97;;;18.12;91.81
13033;BME280;6583;42.632;23.298;2022-09-09T02:31:32;92720.09;;;17.98;92.60
13033;BME280;6583;42.632;23.298;2022-09-09T02:34:02;92719.41;;;17.80;94.45
13033;BME280;6583;42.632;23.298;2022-09-09T02:36:32;92724.78;;;17.80;95.13
13033;BME280;6583;42.632;23.298;2022-09-09T02:39:01;92715.63;;;17.81;95.06
13033;BME280;6583;42.632;23.298;2022-09-09T02:41:32;92721.09;;;17.85;94.74
13033;BME280;6583;42.632;23.298;2022-09-09T02:44:01;92725.41;;;17.86;94.55
13033;BME280;6583;42.632;23.298;2022-09-09T02:46:37;92736.59;;;17.88;93.78
13033;BME280;6583;42.632;23.298;2022-09-09T02:49:10;92735.63;;;17.93;93.66
13033;BME280;6583;42.632;23.298;2022-09-09T02:51:49;92735.13;;;17.91;93.60
13033;BME280;6583;42.632;23.298;2022-09-09T02:54:26;92732.13;;;17.92;93.48
13033;BME280;6583;42.632;23.298;2022-09-09T02:56:59;92729.56;;;17.96;92.22
13033;BME280;6583;42.632;23.298;2022-09-09T02:59:30;92731.59;;;17.99;92.27
13033;BME280;6583;42.632;23.298;2022-09-09T03:01:57;92726.69;;;18.01;91.52
13033;BME280;6583;42.632;23.298;2022-09-09T03:04:24;92734.09;;;18.04;91.08
13033;BME280;6583;42.632;23.298;2022-09-09T03:06:51;92734.84;;;18.04;90.94
13033;BME280;6583;42.632;23.298;2022-09-09T03:09:18;92726.47;;;18.06;90.99
13033;BME280;6583;42.632;23.298;2022-09-09T03:11:44;92741.03;;;18.05;91.58
13033;BME280;6583;42.632;23.298;2022-09-09T03:14:11;92739.84;;;17.94;92.56
13033;BME280;6583;42.632;23.298;2022-09-09T03:16:39;92742.47;;;17.81;93.99
13033;BME280;6583;42.632;23.298;2022-09-09T03:19:07;92741.69;;;17.81;92.46
13033;BME280;6583;42.632;23.298;2022-09-09T03:21:33;92729.81;;;17.82;91.60
13033;BME280;6583;42.632;23.298;2022-09-09T03:24:01;92732.50;;;17.82;92.18
13033;BME280;6583;42.632;23.298;2022-09-09T03:26:28;92732.19;;;17.83;92.43
13033;BME280;6583;42.632;23.298;2022-09-09T03:28:55;92731.69;;;17.90;90.95
13033;BME280;6583;42.632;23.298;2022-09-09T03:31:22;92729.31;;;17.89;91.22
13033;BME280;6583;42.632;23.298;2022-09-09T03:33:50;92737.50;;;17.92;91.34
13033;BME280;6583;42.632;23.298;2022-09-09T03:36:17;92740.63;;;17.94;91.09
13033;BME280;6583;42.632;23.298;2022-09-09T03:38:44;92729.91;;;17.94;91.03
13033;BME280;6583;42.632;23.298;2022-09-09T03:41:10;92729.25;;;17.97;90.80
13033;BME280;6583;42.632;23.298;2022-09-09T03:43:38;92730.03;;;17.98;90.54
13033;BME280;6583;42.632;23.298;2022-09-09T03:46:04;92730.50;;;18.00;90.54
13033;BME280;6583;42.632;23.298;2022-09-09T03:48:31;92733.75;;;18.06;89.25
13033;BME280;6583;42.632;23.298;2022-09-09T03:50:59;92735.00;;;18.08;88.52
13033;BME280;6583;42.632;23.298;2022-09-09T03:53:27;92730.94;;;18.02;89.23
13033;BME280;6583;42.632;23.298;2022-09-09T03:55:56;92736.53;;;17.97;89.74
13033;BME280;6583;42.632;23.298;2022-09-09T03:58:25;92740.63;;;17.94;90.25
13033;BME280;6583;42.632;23.298;2022-09-09T04:00:55;92731.47;;;17.95;91.19
13033;BME280;6583;42.632;23.298;2022-09-09T04:03:23;92741.81;;;17.84;91.94
13033;BME280;6583;42.632;23.298;2022-09-09T04:05:50;92742.22;;;17.74;92.81
13033;BME280;6583;42.632;23.298;2022-09-09T04:08:19;92744.31;;;17.69;93.53
13033;BME280;6583;42.632;23.298;2022-09-09T04:10:46;92741.31;;;17.70;92.90
13033;BME280;6583;42.632;23.298;2022-09-09T04:13:13;92746.78;;;17.74;93.00
13033;BME280;6583;42.632;23.298;2022-09-09T04:15:43;92739.06;;;17.72;93.21
13033;BME280;6583;42.632;23.298;2022-09-09T04:18:10;92735.59;;;17.72;91.95
13033;BME280;6583;42.632;23.298;2022-09-09T04:20:37;92731.03;;;17.72;91.76
13033;BME280;6583;42.632;23.298;2022-09-09T04:23:04;92736.84;;;17.74;91.75
13033;BME280;6583;42.632;23.298;2022-09-09T04:25:33;92734.94;;;17.75;91.24
13033;BME280;6583;42.632;23.298;2022-09-09T04:27:59;92738.06;;;17.77;92.53
13033;BME280;6583;42.632;23.298;2022-09-09T04:30:26;92738.41;;;17.75;93.68
13033;BME280;6583;42.632;23.298;2022-09-09T04:32:53;92739.19;;;17.76;93.49
13033;BME280;6583;42.632;23.298;2022-09-09T04:35:20;92745.34;;;17.76;94.09
13033;BME280;6583;42.632;23.298;2022-09-09T04:37:47;92743.91;;;17.79;93.06
13033;BME280;6583;42.632;23.298;2022-09-09T04:40:14;92750.34;;;17.87;91.86
13033;BME280;6583;42.632;23.298;2022-09-09T04:42:42;92757.63;;;17.86;91.93
13033;BME280;6583;42.632;23.298;2022-09-09T04:45:10;92760.88;;;17.92;93.75
13033;BME280;6583;42.632;23.298;2022-09-09T04:47:38;92763.56;;;17.92;92.25
13033;BME280;6583;42.632;23.298;2022-09-09T04:50:07;92757.28;;;17.88;91.94
13033;BME280;6583;42.632;23.298;2022-09-09T04:52:34;92741.50;;;17.86;92.52
13033;BME280;6583;42.632;23.298;2022-09-09T04:55:01;92719.88;;;17.82;92.63
13033;BME280;6583;42.632;23.298;2022-09-09T04:57:29;92724.88;;;17.93;94.10
13033;BME280;6583;42.632;23.298;2022-09-09T04:59:59;92729.13;;;17.94;95.08
13033;BME280;6583;42.632;23.298;2022-09-09T05:02:27;92720.03;;;17.86;96.15
13033;BME280;6583;42.632;23.298;2022-09-09T05:04:55;92718.91;;;17.87;94.45
13033;BME280;6583;42.632;23.298;2022-09-09T05:07:22;92717.81;;;17.88;94.59
13033;BME280;6583;42.632;23.298;2022-09-09T05:09:48;92713.34;;;17.92;94.43
13033;BME280;6583;42.632;23.298;2022-09-09T05:12:15;92705.41;;;17.96;94.53
13033;BME280;6583;42.632;23.298;2022-09-09T05:14:42;92717.84;;;18.00;95.57
13033;BME280;6583;42.632;23.298;2022-09-09T05:17:10;92721.78;;;18.03;95.97
13033;BME280;6583;42.632;23.298;2022-09-09T05:19:38;92726.47;;;18.06;96.40
13033;BME280;6583;42.632;23.298;2022-09-09T05:22:05;92731.06;;;18.06;97.19
13033;BME280;6583;42.632;23.298;2022-09-09T05:24:32;92714.19;;;18.05;95.03
13033;BME280;6583;42.632;23.298;2022-09-09T05:26:59;92708.28;;;18.12;95.33
13033;BME280;6583;42.632;23.298;2022-09-09T05:29:27;92709.16;;;18.16;95.46
13033;BME280;6583;42.632;23.298;2022-09-09T05:31:54;92717.13;;;18.25;94.40
13033;BME280;6583;42.632;23.298;2022-09-09T05:34:22;92712.94;;;18.36;95.29
13033;BME280;6583;42.632;23.298;2022-09-09T05:36:49;92712.25;;;18.39;95.75
13033;BME280;6583;42.632;23.298;2022-09-09T05:39:16;92717.63;;;18.51;92.68
13033;BME280;6583;42.632;23.298;2022-09-09T05:41:43;92721.91;;;18.52;91.03
13033;BME280;6583;42.632;23.298;2022-09-09T05:44:09;92719.22;;;18.65;91.79
13033;BME280;6583;42.632;23.298;2022-09-09T05:46:36;92727.63;;;18.75;90.29
13033;BME280;6583;42.632;23.298;2022-09-09T05:49:03;92731.38;;;18.83;90.18
13033;BME280;6583;42.632;23.298;2022-09-09T05:51:32;92740.13;;;18.92;91.37
13033;BME280;6583;42.632;23.298;2022-09-09T05:53:58;92735.44;;;19.02;89.21
13033;BME280;6583;42.632;23.298;2022-09-09T05:56:27;92729.13;;;19.10;88.80
13033;BME280;6583;42.632;23.298;2022-09-09T05:58:54;92724.19;;;19.12;89.77
13033;BME280;6583;42.632;23.298;2022-09-09T06:01:23;92735.63;;;19.21;89.87
13033;BME280;6583;42.632;23.298;2022-09-09T06:03:51;92744.25;;;19.27;87.97
13033;BME280;6583;42.632;23.298;2022-09-09T06:06:19;92748.88;;;19.26;88.50
13033;BME280;6583;42.632;23.298;2022-09-09T06:08:50;92751.44;;;19.35;88.66
13033;BME280;6583;42.632;23.298;2022-09-09T06:11:18;92758.72;;;19.47;87.53
13033;BME280;6583;42.632;23.298;2022-09-09T06:13:45;92762.50;;;19.58;86.79
13033;BME280;6583;42.632;23.298;2022-09-09T06:16:14;92761.78;;;19.73;84.09
13033;BME280;6583;42.632;23.298;2022-09-09T06:18:41;92754.84;;;19.85;84.77
13033;BME280;6583;42.632;23.298;2022-09-09T06:21:11;92762.88;;;19.97;81.96
13033;BME280;6583;42.632;23.298;2022-09-09T06:23:41;92761.97;;;20.05;80.78
13033;BME280;6583;42.632;23.298;2022-09-09T06:26:12;92747.78;;;20.08;81.51
13033;BME280;6583;42.632;23.298;2022-09-09T06:28:39;92752.94;;;20.14;81.48
13033;BME280;6583;42.632;23.298;2022-09-09T06:31:10;92755.56;;;20.26;83.05
13033;BME280;6583;42.632;23.298;2022-09-09T06:33:38;92753.19;;;20.37;80.27
13033;BME280;6583;42.632;23.298;2022-09-09T06:36:07;92749.63;;;20.48;80.53
13033;BME280;6583;42.632;23.298;2022-09-09T06:38:36;92748.47;;;20.62;79.44
13033;BME280;6583;42.632;23.298;2022-09-09T06:41:03;92744.47;;;20.72;78.73
13033;BME280;6583;42.632;23.298;2022-09-09T06:43:32;92752.41;;;20.80;79.07
13033;BME280;6583;42.632;23.298;2022-09-09T06:46:01;92746.06;;;20.89;79.00
13033;BME280;6583;42.632;23.298;2022-09-09T06:48:28;92749.09;;;21.03;77.08
13033;BME280;6583;42.632;23.298;2022-09-09T06:51:03;92753.97;;;21.13;77.10
13033;BME280;6583;42.632;23.298;2022-09-09T06:53:30;92761.53;;;21.23;76.70
13033;BME280;6583;42.632;23.298;2022-09-09T06:55:59;92767.88;;;21.31;77.34
13033;BME280;6583;42.632;23.298;2022-09-09T06:58:26;92761.44;;;21.36;75.37
13033;BME280;6583;42.632;23.298;2022-09-09T07:01:01;92768.75;;;21.35;76.12
13033;BME280;6583;42.632;23.298;2022-09-09T07:03:28;92772.81;;;21.45;75.51
13033;BME280;6583;42.632;23.298;2022-09-09T07:05:55;92771.53;;;21.55;74.29
13033;BME280;6583;42.632;23.298;2022-09-09T07:08:22;92771.59;;;21.58;74.00
13033;BME280;6583;42.632;23.298;2022-09-09T07:10:50;92778.13;;;21.57;74.61
13033;BME280;6583;42.632;23.298;2022-09-09T07:13:16;92769.06;;;21.66;74.18
13033;BME280;6583;42.632;23.298;2022-09-09T07:15:46;92773.13;;;21.75;73.64
13033;BME280;6583;42.632;23.298;2022-09-09T07:18:14;92771.06;;;21.69;74.76
13033;BME280;6583;42.632;23.298;2022-09-09T07:20:40;92767.50;;;21.65;74.73
13033;BME280;6583;42.632;23.298;2022-09-09T07:23:07;92771.50;;;21.71;74.50
13033;BME280;6583;42.632;23.298;2022-09-09T07:25:34;92772.53;;;21.66;72.63
13033;BME280;6583;42.632;23.298;2022-09-09T07:28:04;92768.63;;;21.64;72.29
13033;BME280;6583;42.632;23.298;2022-09-09T07:30:32;92766.00;;;21.67;73.70
13033;BME280;6583;42.632;23.298;2022-09-09T07:32:59;92762.25;;;21.72;75.04
13033;BME280;6583;42.632;23.298;2022-09-09T07:35:27;92762.47;;;21.83;74.95
13033;BME280;6583;42.632;23.298;2022-09-09T07:37:54;92759.56;;;21.91;73.94
13033;BME280;6583;42.632;23.298;2022-09-09T07:40:21;92759.72;;;21.98;72.91
13033;BME280;6583;42.632;23.298;2022-09-09T07:42:48;92763.72;;;22.05;74.77
13033;BME280;6583;42.632;23.298;2022-09-09T07:45:14;92772.38;;;22.14;73.58
13033;BME280;6583;42.632;23.298;2022-09-09T07:47:41;92767.53;;;22.23;71.86
13033;BME280;6583;42.632;23.298;2022-09-09T07:50:09;92775.03;;;22.30;69.73
13033;BME280;6583;42.632;23.298;2022-09-09T07:52:38;92773.28;;;22.38;71.22
13033;BME280;6583;42.632;23.298;2022-09-09T07:55:05;92770.72;;;22.45;72.21
13033;BME280;6583;42.632;23.298;2022-09-09T07:57:32;92781.31;;;22.53;70.30
13033;BME280;6583;42.632;23.298;2022-09-09T07:59:58;92778.19;;;22.51;68.86
13033;BME280;6583;42.632;23.298;2022-09-09T08:02:25;92776.94;;;22.49;69.54
13033;BME280;6583;42.632;23.298;2022-09-09T08:04:54;92771.53;;;22.49;69.98
13033;BME280;6583;42.632;23.298;2022-09-09T08:07:21;92769.25;;;22.51;69.74
13033;BME280;6583;42.632;23.298;2022-09-09T08:09:50;92774.38;;;22.56;70.32
13033;BME280;6583;42.632;23.298;2022-09-09T08:12:16;92783.34;;;22.60;70.58
13033;BME280;6583;42.632;23.298;2022-09-09T08:14:43;92778.06;;;22.67;68.63
13033;BME280;6583;42.632;23.298;2022-09-09T08:17:10;92772.47;;;22.57;70.72
13033;BME280;6583;42.632;23.298;2022-09-09T08:19:37;92772.53;;;22.60;69.42
13033;BME280;6583;42.632;23.298;2022-09-09T08:22:03;92769.53;;;22.65;70.94
13033;BME280;6583;42.632;23.298;2022-09-09T08:24:30;92775.78;;;22.69;70.42
13033;BME280;6583;42.632;23.298;2022-09-09T08:26:58;92771.22;;;22.73;69.45
13033;BME280;6583;42.632;23.298;2022-09-09T08:29:25;92775.19;;;22.80;69.33
13033;BME280;6583;42.632;23.298;2022-09-09T08:31:55;92767.91;;;22.84;69.61
13033;BME280;6583;42.632;23.298;2022-09-09T08:34:22;92771.91;;;22.90;69.61
13033;BME280;6583;42.632;23.298;2022-09-09T08:36:50;92775.44;;;22.94;69.77
13033;BME280;6583;42.632;23.298;2022-09-09T08:39:18;92780.91;;;22.98;67.42
13033;BME280;6583;42.632;23.298;2022-09-09T08:42:23;92782.53;;;23.02;66.62
13033;BME280;6583;42.632;23.298;2022-09-09T08:45:04;92776.00;;;23.03;68.88
13033;BME280;6583;42.632;23.298;2022-09-09T08:47:43;92764.91;;;23.08;69.34
13033;BME280;6583;42.632;23.298;2022-09-09T08:50:21;92776.56;;;23.13;66.42
13033;BME280;6583;42.632;23.298;2022-09-09T08:52:54;92773.56;;;23.18;66.41
13033;BME280;6583;42.632;23.298;2022-09-09T08:55:26;92779.03;;;23.21;66.46
13033;BME280;6583;42.632;23.298;2022-09-09T08:57:58;92772.84;;;23.21;66.19
13033;BME280;6583;42.632;23.298;2022-09-09T09:00:35;92771.25;;;23.20;64.86
13033;BME280;6583;42.632;23.298;2022-09-09T09:03:15;92763.56;;;23.22;65.42
13033;BME280;6583;42.632;23.298;2022-09-09T09:05:47;92766.09;;;23.34;64.36
13033;BME280;6583;42.632;23.298;2022-09-09T09:08:24;92769.31;;;23.43;64.22
13033;BME280;6583;42.632;23.298;2022-09-09T09:10:55;92773.41;;;23.57;66.06
13033;BME280;6583;42.632;23.298;2022-09-09T09:13:30;92773.53;;;23.68;63.98
13033;BME280;6583;42.632;23.298;2022-09-09T09:16:11;92772.13;;;23.77;64.97
13033;BME280;6583;42.632;23.298;2022-09-09T09:18:40;92762.75;;;23.71;63.69
13033;BME280;6583;42.632;23.298;2022-09-09T09:21:11;92760.78;;;23.68;62.08
13033;BME280;6583;42.632;23.298;2022-09-09T09:23:44;92767.41;;;23.71;63.10
13033;BME280;6583;42.632;23.298;2022-09-09T09:26:12;92763.16;;;23.73;63.00
13033;BME280;6583;42.632;23.298;2022-09-09T09:28:40;92758.66;;;23.81;62.80
13033;BME280;6583;42.632;23.298;2022-09-09T09:31:09;92768.34;;;23.82;61.11
13033;BME280;6583;42.632;23.298;2022-09-09T09:33:43;92771.84;;;23.82;62.24
13033;BME280;6583;42.632;23.298;2022-09-09T09:36:12;92762.97;;;23.86;62.00
13033;BME280;6583;42.632;23.298;2022-09-09T09:38:51;92763.34;;;23.84;61.40
13033;BME280;6583;42.632;23.298;2022-09-09T09:41:29;92753.78;;;23.94;59.82
13033;BME280;6583;42.632;23.298;2022-09-09T09:43:58;92754.44;;;23.83;60.30
13033;BME280;6583;42.632;23.298;2022-09-09T09:46:26;92754.84;;;23.86;61.18
13033;BME280;6583;42.632;23.298;2022-09-09T09:48:59;92744.09;;;23.93;62.25
13033;BME280;6583;42.632;23.298;2022-09-09T09:51:27;92750.03;;;24.02;61.60
13033;BME280;6583;42.632;23.298;2022-09-09T09:54:13;92742.28;;;24.00;59.76
13033;BME280;6583;42.632;23.298;2022-09-09T09:56:42;92741.53;;;24.03;62.41
13033;BME280;6583;42.632;23.298;2022-09-09T09:59:22;92736.19;;;24.11;64.77
13033;BME280;6583;42.632;23.298;2022-09-09T10:01:49;92746.31;;;24.14;60.01
13033;BME280;6583;42.632;23.298;2022-09-09T10:04:18;92733.97;;;24.20;59.08
13033;BME280;6583;42.632;23.298;2022-09-09T10:06:46;92747.88;;;24.15;58.76
13033;BME280;6583;42.632;23.298;2022-09-09T10:09:22;92743.22;;;24.15;59.02
13033;BME280;6583;42.632;23.298;2022-09-09T10:11:55;92744.69;;;24.09;58.91
13033;BME280;6583;42.632;23.298;2022-09-09T10:14:31;92748.47;;;24.01;58.35
13033;BME280;6583;42.632;23.298;2022-09-09T10:17:13;92749.19;;;23.98;58.99
13033;BME280;6583;42.632;23.298;2022-09-09T10:19:50;92757.75;;;24.00;62.22
13033;BME280;6583;42.632;23.298;2022-09-09T10:22:25;92750.03;;;24.02;59.47
13033;BME280;6583;42.632;23.298;2022-09-09T10:25:14;92749.63;;;24.00;59.61
13033;BME280;6583;42.632;23.298;2022-09-09T10:27:53;92756.97;;;23.99;61.76
13033;BME280;6583;42.632;23.298;2022-09-09T10:30:25;92756.59;;;24.01;62.24
13033;BME280;6583;42.632;23.298;2022-09-09T10:33:01;92759.72;;;24.03;59.64
13033;BME280;6583;42.632;23.298;2022-09-09T10:35:33;92754.63;;;23.98;60.25
13033;BME280;6583;42.632;23.298;2022-09-09T10:38:17;92760.03;;;23.98;62.14
13033;BME280;6583;42.632;23.298;2022-09-09T10:41:00;92763.22;;;24.03;61.97
13033;BME280;6583;42.632;23.298;2022-09-09T10:43:44;92761.28;;;24.04;62.50
13033;BME280;6583;42.632;23.298;2022-09-09T10:46:19;92761.28;;;24.04;61.15
13033;BME280;6583;42.632;23.298;2022-09-09T10:49:02;92762.44;;;24.03;60.29
13033;BME280;6583;42.632;23.298;2022-09-09T10:51:40;92762.06;;;24.05;62.64
13033;BME280;6583;42.632;23.298;2022-09-09T10:54:29;92762.00;;;24.01;62.95
13033;BME280;6583;42.632;23.298;2022-09-09T10:57:03;92764.72;;;24.01;63.21
13033;BME280;6583;42.632;23.298;2022-09-09T10:59:38;92763.97;;;24.00;65.11
13033;BME280;6583;42.632;23.298;2022-09-09T11:02:13;92755.78;;;23.97;65.23
13033;BME280;6583;42.632;23.298;2022-09-09T11:04:50;92759.22;;;23.94;64.83
13033;BME280;6583;42.632;23.298;2022-09-09T11:07:25;92765.31;;;23.87;62.75
13033;BME280;6583;42.632;23.298;2022-09-09T11:09:59;92771.50;;;23.88;64.21
13033;BME280;6583;42.632;23.298;2022-09-09T11:12:29;92764.13;;;23.84;65.55
13033;BME280;6583;42.632;23.298;2022-09-09T11:15:01;92761.03;;;23.86;62.45
13033;BME280;6583;42.632;23.298;2022-09-09T11:17:36;92762.19;;;23.85;62.95
13033;BME280;6583;42.632;23.298;2022-09-09T11:20:11;92749.47;;;23.89;60.94
13033;BME280;6583;42.632;23.298;2022-09-09T11:22:44;92754.16;;;23.92;63.32
13033;BME280;6583;42.632;23.298;2022-09-09T11:25:16;92743.78;;;23.98;64.52
13033;BME280;6583;42.632;23.298;2022-09-09T11:27:56;92731.78;;;23.99;63.30
13033;BME280;6583;42.632;23.298;2022-09-09T11:30:31;92735.31;;;24.03;62.00
13033;BME280;6583;42.632;23.298;2022-09-09T11:33:25;92724.88;;;24.05;60.45
13033;BME280;6583;42.632;23.298;2022-09-09T11:36:16;92714.00;;;24.01;61.27
13033;BME280;6583;42.632;23.298;2022-09-09T11:38:51;92712.00;;;23.95;65.54
13033;BME280;6583;42.632;23.298;2022-09-09T11:41:19;92716.63;;;23.94;62.47
13033;BME280;6583;42.632;23.298;2022-09-09T11:43:49;92707.41;;;23.99;65.47
13033;BME280;6583;42.632;23.298;2022-09-09T11:46:19;92700.44;;;24.01;61.89
13033;BME280;6583;42.632;23.298;2022-09-09T11:48:59;92678.00;;;24.01;63.21
13033;BME280;6583;42.632;23.298;2022-09-09T11:51:28;92665.69;;;24.07;62.92
13033;BME280;6583;42.632;23.298;2022-09-09T11:53:57;92659.41;;;24.03;61.28
13033;BME280;6583;42.632;23.298;2022-09-09T11:56:26;92666.38;;;24.00;62.25
13033;BME280;6583;42.632;23.298;2022-09-09T11:58:55;92680.69;;;24.01;61.20
13033;BME280;6583;42.632;23.298;2022-09-09T12:01:29;92679.16;;;24.00;61.64
13033;BME280;6583;42.632;23.298;2022-09-09T12:07:20;92677.66;;;24.06;62.74
13033;BME280;6583;42.632;23.298;2022-09-09T12:09:51;92667.22;;;24.08;61.71
13033;BME280;6583;42.632;23.298;2022-09-09T12:12:30;92675.41;;;24.12;62.23
13033;BME280;6583;42.632;23.298;2022-09-09T12:15:18;92678.94;;;24.16;62.29
13033;BME280;6583;42.632;23.298;2022-09-09T12:17:47;92674.28;;;24.16;62.82
13033;BME280;6583;42.632;23.298;2022-09-09T12:20:15;92666.91;;;24.13;62.94
13033;BME280;6583;42.632;23.298;2022-09-09T12:25:57;92661.91;;;24.19;62.70
13033;BME280;6583;42.632;23.298;2022-09-09T12:28:30;92654.25;;;24.25;62.34
13033;BME280;6583;42.632;23.298;2022-09-09T12:31:07;92653.50;;;24.28;64.48
13033;BME280;6583;42.632;23.298;2022-09-09T12:33:40;92644.22;;;24.29;62.54
13033;BME280;6583;42.632;23.298;2022-09-09T12:36:12;92644.59;;;24.31;61.90
13033;BME280;6583;42.632;23.298;2022-09-09T12:38:41;92648.13;;;24.31;62.23
13033;BME280;6583;42.632;23.298;2022-09-09T12:41:19;92638.03;;;24.32;63.47
13033;BME280;6583;42.632;23.298;2022-09-09T12:43:46;92645.81;;;24.33;62.73
13033;BME280;6583;42.632;23.298;2022-09-09T12:46:20;92648.56;;;24.37;65.32
13033;BME280;6583;42.632;23.298;2022-09-09T12:48:50;92645.06;;;24.36;65.19
13033;BME280;6583;42.632;23.298;2022-09-09T12:51:20;92642.31;;;24.33;64.47
13033;BME280;6583;42.632;23.298;2022-09-09T12:53:48;92633.81;;;24.38;64.34
13033;BME280;6583;42.632;23.298;2022-09-09T12:56:21;92628.03;;;24.39;64.49
13033;BME280;6583;42.632;23.298;2022-09-09T12:58:50;92626.88;;;24.40;63.51
13033;BME280;6583;42.632;23.298;2022-09-09T13:01:21;92622.63;;;24.43;63.65
13033;BME280;6583;42.632;23.298;2022-09-09T13:03:48;92622.25;;;24.45;65.27
13033;BME280;6583;42.632;23.298;2022-09-09T13:06:20;92616.47;;;24.46;63.86
13033;BME280;6583;42.632;23.298;2022-09-09T13:08:48;92621.16;;;24.49;63.83
13033;BME280;6583;42.632;23.298;2022-09-09T13:11:18;92622.72;;;24.50;63.42
13033;BME280;6583;42.632;23.298;2022-09-09T13:13:52;92611.88;;;24.50;63.31
13033;BME280;6583;42.632;23.298;2022-09-09T13:16:22;92614.66;;;24.54;66.11
13033;BME280;6583;42.632;23.298;2022-09-09T13:18:51;92609.25;;;24.57;62.99
13033;BME280;6583;42.632;23.298;2022-09-09T13:21:18;92606.53;;;24.57;62.48
13033;BME280;6583;42.632;23.298;2022-09-09T13:23:49;92604.59;;;24.58;65.88
13033;BME280;6583;42.632;23.298;2022-09-09T13:26:22;92604.19;;;24.56;63.38